Nautilus — OUYX2 — position and weather

sailwx.info

Track history (hours):
 
Tides and Currents Weather Stations Pressure Air Temp Water Temp Dewpoint Dewpoint Depression Visibility Wind Speed Wind Dir Waves Ship Positions

Nautilus

Last reported at 2017-Apr-28 06:00 UTC. Time now 2017-Apr-28 06:26 UTC.
Position N 56°05' E 016°33'.

Length 120 m; draft 7.2 m.

Type: Ship. MMSI: 219425000.

Date/timePositionNaut miles runAvg speedWind from/ knotsBaromVisibWave heightAir tempDewpointWater temp
2017-Apr-28 06:00N 56°05' E 016°33'612.3
2017-Apr-28 05:30N 56°09' E 016°43'612.0
2017-Apr-28 05:00N 56°14' E 016°47'612.1
2017-Apr-28 04:31N 56°20' E 016°51'612.2
2017-Apr-28 04:00N 56°25' E 016°55'612.2
2017-Apr-28 03:30N 56°31' E 016°59'612.0
2017-Apr-28 03:00N 56°37' E 017°03'611.9
2017-Apr-28 02:30N 56°42' E 017°07'18511.9
2017-Apr-27 11:00N 59°25' E 019°53'1810.5
2017-Apr-27 09:19N 59°43' E 019°47'611.7
2017-Apr-27 08:46N 59°48' E 019°39'411.9
2017-Apr-27 08:28N 59°50' E 019°34'511.6
2017-Apr-27 08:01N 59°54' E 019°28'612.3
2017-Apr-27 07:31N 59°59' E 019°20'612.1
2017-Apr-27 07:00N 60°04' E 019°12'612.2
2017-Apr-27 06:30N 60°08' E 019°04'611.4
2017-Apr-27 06:00N 60°14' E 019°00'612.0
2017-Apr-27 05:30N 60°20' E 018°60'612.1
2017-Apr-27 05:00N 60°26' E 018°59'612.0
2017-Apr-27 04:30N 60°32' E 019°00'612.2
2017-Apr-27 04:00N 60°38' E 019°03'612.0
2017-Apr-27 03:30N 60°44' E 019°06'  
2017-Apr-22 11:36N 60°28' E 019°02'1 9.7
2017-Apr-22 11:31N 60°27' E 019°02'5 9.0
2017-Apr-22 10:57N 60°22' E 019°01'4 8.7
2017-Apr-22 10:30N 60°18' E 019°01'4 8.6
2017-Apr-22 10:01N 60°14' E 019°03'4 8.9
2017-Apr-22 09:31N 60°10' E 019°08'5 9.6
2017-Apr-22 09:01N 60°07' E 019°14'5 9.9
2017-Apr-22 08:31N 60°03' E 019°20'5 9.7
2017-Apr-22 08:01N 59°59' E 019°27'5 9.8
2017-Apr-22 07:31N 59°55' E 019°33'5 9.6
2017-Apr-22 06:59N 59°51' E 019°39'5 9.8
2017-Apr-22 06:31N 59°48' E 019°45'610.0
2017-Apr-22 05:55N 59°43' E 019°53'28810.7
2017-Apr-21 03:01N 55°36' E 015°18'012.2
2017-Apr-21 03:00N 55°36' E 015°17'712.0
2017-Apr-21 02:27N 55°33' E 015°07'612.0
2017-Apr-21 01:59N 55°31' E 014°58'612.0
2017-Apr-21 01:29N 55°28' E 014°49'612.0
2017-Apr-21 01:00N 55°25' E 014°40'611.9
2017-Apr-21 00:29N 55°20' E 014°33'612.2
2017-Apr-21 00:00N 55°16' E 014°27'612.0
2017-Apr-20 23:30N 55°11' E 014°20'612.5
2017-Apr-20 23:00N 55°11' E 014°09'612.1
2017-Apr-20 22:30N 55°11' E 013°58'612.1
2017-Apr-20 21:59N 55°11' E 013°47'712.3
2017-Apr-20 21:27N 55°11' E 013°36'612.1
2017-Apr-20 20:58N 55°12' E 013°26'711.8
2017-Apr-20 20:24N 55°12' E 013°14'512.1
2017-Apr-20 19:58N 55°12' E 013°04'512.0
2017-Apr-20 19:30N 55°14' E 012°55'612.1
2017-Apr-20 19:00N 55°16' E 012°45'510.6
2017-Apr-20 18:31N 55°19' E 012°38'611.5
2017-Apr-20 18:01N 55°25' E 012°40'611.6
2017-Apr-20 17:31N 55°30' E 012°41'5 9.2
2017-Apr-20 17:01N 55°35' E 012°42'5 9.1
2017-Apr-20 16:31N 55°40' E 012°41'611.3
2017-Apr-20 16:01N 55°45' E 012°41'511.0
2017-Apr-20 15:31N 55°51' E 012°41'510.9
2017-Apr-20 15:01N 55°56' E 012°38'510.6
2017-Apr-20 14:31N 56°01' E 012°39'1110.7
2017-Apr-20 13:31N 56°09' E 012°27'6411.0
2017-Apr-20 07:43N 57°10' E 011°55'210.8
2017-Apr-20 07:30N 57°12' E 011°53'711.0
2017-Apr-20 06:54N 57°18' E 011°48'410.9
2017-Apr-20 06:30N 57°22' E 011°45'611.1
2017-Apr-20 06:00N 57°28' E 011°41'510.7
2017-Apr-20 05:31N 57°32' E 011°37'510.3
2017-Apr-20 05:00N 57°37' E 011°41'5 9.3
2017-Apr-20 04:30N 57°40' E 011°48'0 0.3
2017-Apr-20 04:00N 57°40' E 011°48'0 0.6
2017-Apr-20 03:30N 57°41' E 011°48'2 4.8
2017-Apr-20 03:01N 57°41' E 011°52'0 0.0
2017-Apr-20 02:31N 57°41' E 011°52'0 0.0
2017-Apr-20 01:59N 57°41' E 011°52'0 0.0
2017-Apr-20 01:29N 57°41' E 011°52'0 0.0
2017-Apr-20 00:59N 57°41' E 011°52'0 0.0
2017-Apr-20 00:29N 57°41' E 011°52'0 0.0
2017-Apr-19 23:59N 57°41' E 011°52'0 0.0
2017-Apr-19 23:29N 57°41' E 011°52'0 0.0
2017-Apr-19 22:59N 57°41' E 011°52'0 0.0
2017-Apr-19 22:29N 57°41' E 011°52'0 0.0
2017-Apr-19 21:59N 57°41' E 011°52'0 0.0
2017-Apr-19 21:29N 57°41' E 011°52'0 0.0
2017-Apr-19 20:59N 57°41' E 011°52'0 0.0
2017-Apr-19 20:29N 57°41' E 011°52'0 0.0
2017-Apr-19 19:59N 57°41' E 011°52'0 0.0
2017-Apr-19 19:29N 57°41' E 011°52'0 0.0
2017-Apr-19 18:59N 57°41' E 011°52'0 0.0
2017-Apr-19 18:29N 57°41' E 011°52'0 0.0
2017-Apr-19 17:59N 57°41' E 011°52'0 0.0
2017-Apr-19 17:29N 57°41' E 011°52'0 0.0
2017-Apr-19 16:59N 57°41' E 011°52'0 0.0
2017-Apr-19 16:29N 57°41' E 011°52'0 0.0
2017-Apr-19 15:59N 57°41' E 011°52'0 0.0
2017-Apr-19 15:29N 57°41' E 011°52'0 0.0
2017-Apr-19 14:59N 57°41' E 011°52'0 0.0
2017-Apr-19 14:29N 57°41' E 011°52'0 0.0
2017-Apr-19 13:29N 57°41' E 011°52'0 0.0
2017-Apr-19 12:59N 57°41' E 011°52'0 0.0
2017-Apr-19 12:29N 57°41' E 011°52'0 0.0
2017-Apr-19 11:59N 57°41' E 011°52'0 0.0
2017-Apr-19 11:29N 57°41' E 011°52'0 0.0
2017-Apr-19 10:59N 57°41' E 011°52'0 0.0
2017-Apr-19 10:29N 57°41' E 011°52'0 0.0
2017-Apr-19 09:59N 57°41' E 011°52'0 0.0
2017-Apr-19 09:29N 57°41' E 011°52'0 0.0
2017-Apr-19 09:00N 57°41' E 011°52'2 3.9
2017-Apr-19 08:30N 57°41' E 011°49'612.6
2017-Apr-19 08:00N 57°36' E 011°40'713.7
2017-Apr-19 07:30N 57°30' E 011°37'714.2
2017-Apr-19 07:00N 57°23' E 011°38'714.3
2017-Apr-19 06:30N 57°16' E 011°39'714.2
2017-Apr-19 06:00N 57°08' E 011°41'714.1
2017-Apr-19 05:29N 57°01' E 011°44'4611.5
2017-Apr-19 01:29N 56°21' E 011°03'613.4
2017-Apr-19 01:00N 56°17' E 010°55'713.5
2017-Apr-19 00:30N 56°12' E 010°47'612.4
2017-Apr-19 00:00N 56°06' E 010°43'713.9
2017-Apr-18 23:30N 56°05' E 010°30'713.4
2017-Apr-18 23:00N 56°08' E 010°20'4 7.0
2017-Apr-18 22:30N 56°09' E 010°14'0 0.0
2017-Apr-18 22:00N 56°09' E 010°14'0 0.0
2017-Apr-18 21:30N 56°09' E 010°14'0 0.0
2017-Apr-18 20:57N 56°09' E 010°14'0 0.0
2017-Apr-18 20:30N 56°09' E 010°14'0 0.0
2017-Apr-18 20:00N 56°09' E 010°14'0 0.0
2017-Apr-18 19:30N 56°09' E 010°14'0 0.0
2017-Apr-18 19:00N 56°09' E 010°14'0 0.0
2017-Apr-18 18:30N 56°09' E 010°14'0 0.0
2017-Apr-18 18:00N 56°09' E 010°14'0 0.0
2017-Apr-18 17:30N 56°09' E 010°14'0 0.0
2017-Apr-18 17:00N 56°09' E 010°14'0 0.0
2017-Apr-18 16:27N 56°09' E 010°14'0 0.0
2017-Apr-18 15:57N 56°09' E 010°14'0 0.0
2017-Apr-18 15:30N 56°09' E 010°14'0 0.0
2017-Apr-18 15:00N 56°09' E 010°14'0 0.0
2017-Apr-18 14:30N 56°09' E 010°14'0 0.0
2017-Apr-18 13:21N 56°09' E 010°14'0 0.0
2017-Apr-18 12:57N 56°09' E 010°14'0 0.0
2017-Apr-18 12:30N 56°09' E 010°14'0 0.0
2017-Apr-18 11:57N 56°09' E 010°14'0 0.0
2017-Apr-18 11:27N 56°09' E 010°14'0 0.0
2017-Apr-18 10:48N 56°09' E 010°14'0 0.0
2017-Apr-18 10:27N 56°09' E 010°14'0 0.0
2017-Apr-18 10:00N 56°09' E 010°14'0 0.0
2017-Apr-18 09:30N 56°09' E 010°14'0 0.0
2017-Apr-18 09:00N 56°09' E 010°14'0 0.0
2017-Apr-18 08:30N 56°09' E 010°14'0 0.0
2017-Apr-18 08:00N 56°09' E 010°14'0 0.2
2017-Apr-18 07:31N 56°09' E 010°14'2 3.9
2017-Apr-18 07:00N 56°09' E 010°17'510.2
2017-Apr-18 06:30N 56°04' E 010°21'  
Track history (hours):
 
Tides and Currents Weather Stations Pressure Air Temp Water Temp Dewpoint Dewpoint Depression Visibility Wind Speed Wind Dir Waves Ship Positions

Nautilus

Last reported at 2017-Apr-28 06:00 UTC. Time now 2017-Apr-28 06:26 UTC.
Position N 56°05' E 016°33'.

Length 120 m; draft 7.2 m.

Type: Ship. MMSI: 219425000.

Date/timePositionNaut miles runAvg speedWind from/ knotsBaromVisibWave heightAir tempDewpointWater temp
2017-Apr-28 06:00N 56°05' E 016°33'612.3
2017-Apr-28 05:30N 56°09' E 016°43'612.0
2017-Apr-28 05:00N 56°14' E 016°47'612.1
2017-Apr-28 04:31N 56°20' E 016°51'612.2
2017-Apr-28 04:00N 56°25' E 016°55'612.2
2017-Apr-28 03:30N 56°31' E 016°59'612.0
2017-Apr-28 03:00N 56°37' E 017°03'611.9
2017-Apr-28 02:30N 56°42' E 017°07'18511.9
2017-Apr-27 11:00N 59°25' E 019°53'1810.5
2017-Apr-27 09:19N 59°43' E 019°47'611.7
2017-Apr-27 08:46N 59°48' E 019°39'411.9
2017-Apr-27 08:28N 59°50' E 019°34'511.6
2017-Apr-27 08:01N 59°54' E 019°28'612.3
2017-Apr-27 07:31N 59°59' E 019°20'612.1
2017-Apr-27 07:00N 60°04' E 019°12'612.2
2017-Apr-27 06:30N 60°08' E 019°04'611.4
2017-Apr-27 06:00N 60°14' E 019°00'612.0
2017-Apr-27 05:30N 60°20' E 018°60'612.1
2017-Apr-27 05:00N 60°26' E 018°59'612.0
2017-Apr-27 04:30N 60°32' E 019°00'612.2
2017-Apr-27 04:00N 60°38' E 019°03'612.0
2017-Apr-27 03:30N 60°44' E 019°06'  
2017-Apr-22 11:36N 60°28' E 019°02'1 9.7
2017-Apr-22 11:31N 60°27' E 019°02'5 9.0
2017-Apr-22 10:57N 60°22' E 019°01'4 8.7
2017-Apr-22 10:30N 60°18' E 019°01'4 8.6
2017-Apr-22 10:01N 60°14' E 019°03'4 8.9
2017-Apr-22 09:31N 60°10' E 019°08'5 9.6
2017-Apr-22 09:01N 60°07' E 019°14'5 9.9
2017-Apr-22 08:31N 60°03' E 019°20'5 9.7
2017-Apr-22 08:01N 59°59' E 019°27'5 9.8
2017-Apr-22 07:31N 59°55' E 019°33'5 9.6
2017-Apr-22 06:59N 59°51' E 019°39'5 9.8
2017-Apr-22 06:31N 59°48' E 019°45'610.0
2017-Apr-22 05:55N 59°43' E 019°53'28810.7
2017-Apr-21 03:01N 55°36' E 015°18'012.2
2017-Apr-21 03:00N 55°36' E 015°17'712.0
2017-Apr-21 02:27N 55°33' E 015°07'612.0
2017-Apr-21 01:59N 55°31' E 014°58'612.0
2017-Apr-21 01:29N 55°28' E 014°49'612.0
2017-Apr-21 01:00N 55°25' E 014°40'611.9
2017-Apr-21 00:29N 55°20' E 014°33'612.2
2017-Apr-21 00:00N 55°16' E 014°27'612.0
2017-Apr-20 23:30N 55°11' E 014°20'612.5
2017-Apr-20 23:00N 55°11' E 014°09'612.1
2017-Apr-20 22:30N 55°11' E 013°58'612.1
2017-Apr-20 21:59N 55°11' E 013°47'712.3
2017-Apr-20 21:27N 55°11' E 013°36'612.1
2017-Apr-20 20:58N 55°12' E 013°26'711.8
2017-Apr-20 20:24N 55°12' E 013°14'512.1
2017-Apr-20 19:58N 55°12' E 013°04'512.0
2017-Apr-20 19:30N 55°14' E 012°55'612.1
2017-Apr-20 19:00N 55°16' E 012°45'510.6
2017-Apr-20 18:31N 55°19' E 012°38'611.5
2017-Apr-20 18:01N 55°25' E 012°40'611.6
2017-Apr-20 17:31N 55°30' E 012°41'5 9.2
2017-Apr-20 17:01N 55°35' E 012°42'5 9.1
2017-Apr-20 16:31N 55°40' E 012°41'611.3
2017-Apr-20 16:01N 55°45' E 012°41'511.0
2017-Apr-20 15:31N 55°51' E 012°41'510.9
2017-Apr-20 15:01N 55°56' E 012°38'510.6
2017-Apr-20 14:31N 56°01' E 012°39'1110.7
2017-Apr-20 13:31N 56°09' E 012°27'6411.0
2017-Apr-20 07:43N 57°10' E 011°55'210.8
2017-Apr-20 07:30N 57°12' E 011°53'711.0
2017-Apr-20 06:54N 57°18' E 011°48'410.9
2017-Apr-20 06:30N 57°22' E 011°45'611.1
2017-Apr-20 06:00N 57°28' E 011°41'510.7
2017-Apr-20 05:31N 57°32' E 011°37'510.3
2017-Apr-20 05:00N 57°37' E 011°41'5 9.3
2017-Apr-20 04:30N 57°40' E 011°48'0 0.3
2017-Apr-20 04:00N 57°40' E 011°48'0 0.6
2017-Apr-20 03:30N 57°41' E 011°48'2 4.8
2017-Apr-20 03:01N 57°41' E 011°52'0 0.0
2017-Apr-20 02:31N 57°41' E 011°52'0 0.0
2017-Apr-20 01:59N 57°41' E 011°52'0 0.0
2017-Apr-20 01:29N 57°41' E 011°52'0 0.0
2017-Apr-20 00:59N 57°41' E 011°52'0 0.0
2017-Apr-20 00:29N 57°41' E 011°52'0 0.0
2017-Apr-19 23:59N 57°41' E 011°52'0 0.0
2017-Apr-19 23:29N 57°41' E 011°52'0 0.0
2017-Apr-19 22:59N 57°41' E 011°52'0 0.0
2017-Apr-19 22:29N 57°41' E 011°52'0 0.0
2017-Apr-19 21:59N 57°41' E 011°52'0 0.0
2017-Apr-19 21:29N 57°41' E 011°52'0 0.0
2017-Apr-19 20:59N 57°41' E 011°52'0 0.0
2017-Apr-19 20:29N 57°41' E 011°52'0 0.0
2017-Apr-19 19:59N 57°41' E 011°52'0 0.0
2017-Apr-19 19:29N 57°41' E 011°52'0 0.0
2017-Apr-19 18:59N 57°41' E 011°52'0 0.0
2017-Apr-19 18:29N 57°41' E 011°52'0 0.0
2017-Apr-19 17:59N 57°41' E 011°52'0 0.0
2017-Apr-19 17:29N 57°41' E 011°52'0 0.0
2017-Apr-19 16:59N 57°41' E 011°52'0 0.0
2017-Apr-19 16:29N 57°41' E 011°52'0 0.0
2017-Apr-19 15:59N 57°41' E 011°52'0 0.0
2017-Apr-19 15:29N 57°41' E 011°52'0 0.0
2017-Apr-19 14:59N 57°41' E 011°52'0 0.0
2017-Apr-19 14:29N 57°41' E 011°52'0 0.0
2017-Apr-19 13:29N 57°41' E 011°52'0 0.0
2017-Apr-19 12:59N 57°41' E 011°52'0 0.0
2017-Apr-19 12:29N 57°41' E 011°52'0 0.0
2017-Apr-19 11:59N 57°41' E 011°52'0 0.0
2017-Apr-19 11:29N 57°41' E 011°52'0 0.0
2017-Apr-19 10:59N 57°41' E 011°52'0 0.0
2017-Apr-19 10:29N 57°41' E 011°52'0 0.0
2017-Apr-19 09:59N 57°41' E 011°52'0 0.0
2017-Apr-19 09:29N 57°41' E 011°52'0 0.0
2017-Apr-19 09:00N 57°41' E 011°52'2 3.9
2017-Apr-19 08:30N 57°41' E 011°49'612.6
2017-Apr-19 08:00N 57°36' E 011°40'713.7
2017-Apr-19 07:30N 57°30' E 011°37'714.2
2017-Apr-19 07:00N 57°23' E 011°38'714.3
2017-Apr-19 06:30N 57°16' E 011°39'714.2
2017-Apr-19 06:00N 57°08' E 011°41'714.1
2017-Apr-19 05:29N 57°01' E 011°44'4611.5
2017-Apr-19 01:29N 56°21' E 011°03'613.4
2017-Apr-19 01:00N 56°17' E 010°55'713.5
2017-Apr-19 00:30N 56°12' E 010°47'612.4
2017-Apr-19 00:00N 56°06' E 010°43'713.9
2017-Apr-18 23:30N 56°05' E 010°30'713.4
2017-Apr-18 23:00N 56°08' E 010°20'4 7.0
2017-Apr-18 22:30N 56°09' E 010°14'0 0.0
2017-Apr-18 22:00N 56°09' E 010°14'0 0.0
2017-Apr-18 21:30N 56°09' E 010°14'0 0.0
2017-Apr-18 20:57N 56°09' E 010°14'0 0.0
2017-Apr-18 20:30N 56°09' E 010°14'0 0.0
2017-Apr-18 20:00N 56°09' E 010°14'0 0.0
2017-Apr-18 19:30N 56°09' E 010°14'0 0.0
2017-Apr-18 19:00N 56°09' E 010°14'0 0.0
2017-Apr-18 18:30N 56°09' E 010°14'0 0.0
2017-Apr-18 18:00N 56°09' E 010°14'0 0.0
2017-Apr-18 17:30N 56°09' E 010°14'0 0.0
2017-Apr-18 17:00N 56°09' E 010°14'0 0.0
2017-Apr-18 16:27N 56°09' E 010°14'0 0.0
2017-Apr-18 15:57N 56°09' E 010°14'0 0.0
2017-Apr-18 15:30N 56°09' E 010°14'0 0.0
2017-Apr-18 15:00N 56°09' E 010°14'0 0.0
2017-Apr-18 14:30N 56°09' E 010°14'0 0.0
2017-Apr-18 13:21N 56°09' E 010°14'0 0.0
2017-Apr-18 12:57N 56°09' E 010°14'0 0.0
2017-Apr-18 12:30N 56°09' E 010°14'0 0.0
2017-Apr-18 11:57N 56°09' E 010°14'0 0.0
2017-Apr-18 11:27N 56°09' E 010°14'0 0.0
2017-Apr-18 10:48N 56°09' E 010°14'0 0.0
2017-Apr-18 10:27N 56°09' E 010°14'0 0.0
2017-Apr-18 10:00N 56°09' E 010°14'0 0.0
2017-Apr-18 09:30N 56°09' E 010°14'0 0.0
2017-Apr-18 09:00N 56°09' E 010°14'0 0.0
2017-Apr-18 08:30N 56°09' E 010°14'0 0.0
2017-Apr-18 08:00N 56°09' E 010°14'0 0.2
2017-Apr-18 07:31N 56°09' E 010°14'2 3.9
2017-Apr-18 07:00N 56°09' E 010°17'510.2
2017-Apr-18 06:30N 56°04' E 010°21'  

Dump ship's entire track history